sensor_id;sensor_type;location;lat;lon;timestamp;temperature;humidity
6538;DHT22;3302;52.508;13.454;2022-10-23T00:02:25;14.10;99.90
6538;DHT22;3302;52.508;13.454;2022-10-23T00:04:51;14.00;99.90
6538;DHT22;3302;52.508;13.454;2022-10-23T00:07:17;14.10;99.90
6538;DHT22;3302;52.508;13.454;2022-10-23T00:09:43;14.00;99.90
6538;DHT22;3302;52.508;13.454;2022-10-23T00:12:09;13.90;99.90
6538;DHT22;3302;52.508;13.454;2022-10-23T00:14:35;13.90;99.90
6538;DHT22;3302;52.508;13.454;2022-10-23T00:17:01;13.80;99.90
6538;DHT22;3302;52.508;13.454;2022-10-23T00:19:26;13.90;99.90
6538;DHT22;3302;52.508;13.454;2022-10-23T00:21:52;13.80;99.90
6538;DHT22;3302;52.508;13.454;2022-10-23T00:24:18;13.80;99.90
6538;DHT22;3302;52.508;13.454;2022-10-23T00:26:44;13.80;99.90
6538;DHT22;3302;52.508;13.454;2022-10-23T00:29:10;13.70;99.90
6538;DHT22;3302;52.508;13.454;2022-10-23T00:31:36;13.70;99.90
6538;DHT22;3302;52.508;13.454;2022-10-23T00:34:02;13.70;99.90
6538;DHT22;3302;52.508;13.454;2022-10-23T00:36:32;13.70;99.90
6538;DHT22;3302;52.508;13.454;2022-10-23T00:38:58;13.70;99.90
6538;DHT22;3302;52.508;13.454;2022-10-23T00:41:26;13.60;99.90
6538;DHT22;3302;52.508;13.454;2022-10-23T00:44:06;13.60;99.90
6538;DHT22;3302;52.508;13.454;2022-10-23T00:46:33;13.60;99.90
6538;DHT22;3302;52.508;13.454;2022-10-23T00:49:00;13.60;99.90
6538;DHT22;3302;52.508;13.454;2022-10-23T00:51:29;13.60;99.90
6538;DHT22;3302;52.508;13.454;2022-10-23T00:53:58;13.60;99.90
6538;DHT22;3302;52.508;13.454;2022-10-23T00:56:25;13.60;99.90
6538;DHT22;3302;52.508;13.454;2022-10-23T00:58:51;13.60;99.90
6538;DHT22;3302;52.508;13.454;2022-10-23T01:01:19;13.60;99.90
6538;DHT22;3302;52.508;13.454;2022-10-23T01:03:45;13.70;99.90
6538;DHT22;3302;52.508;13.454;2022-10-23T01:06:40;13.60;99.90
6538;DHT22;3302;52.508;13.454;2022-10-23T01:15:12;13.70;99.90
6538;DHT22;3302;52.508;13.454;2022-10-23T01:17:51;13.70;99.90
6538;DHT22;3302;52.508;13.454;2022-10-23T01:20:29;13.70;99.90
6538;DHT22;3302;52.508;13.454;2022-10-23T01:28:45;13.70;99.90
6538;DHT22;3302;52.508;13.454;2022-10-23T01:31:23;13.70;99.90
6538;DHT22;3302;52.508;13.454;2022-10-23T01:33:56;13.60;99.90
6538;DHT22;3302;52.508;13.454;2022-10-23T01:36:26;13.60;99.90
6538;DHT22;3302;52.508;13.454;2022-10-23T01:39:01;13.60;99.90
6538;DHT22;3302;52.508;13.454;2022-10-23T01:42:04;13.60;99.90
6538;DHT22;3302;52.508;13.454;2022-10-23T01:44:38;13.60;99.90
6538;DHT22;3302;52.508;13.454;2022-10-23T01:47:07;13.60;99.90
6538;DHT22;3302;52.508;13.454;2022-10-23T01:49:35;13.60;99.90
6538;DHT22;3302;52.508;13.454;2022-10-23T01:52:07;13.50;99.90
6538;DHT22;3302;52.508;13.454;2022-10-23T01:54:38;13.50;99.90
6538;DHT22;3302;52.508;13.454;2022-10-23T01:57:09;13.40;99.90
6538;DHT22;3302;52.508;13.454;2022-10-23T01:59:41;13.50;99.90
6538;DHT22;3302;52.508;13.454;2022-10-23T02:02:10;13.40;99.90
6538;DHT22;3302;52.508;13.454;2022-10-23T02:04:40;13.50;99.90
6538;DHT22;3302;52.508;13.454;2022-10-23T02:07:07;13.50;99.90
6538;DHT22;3302;52.508;13.454;2022-10-23T02:09:33;13.50;99.90
6538;DHT22;3302;52.508;13.454;2022-10-23T02:12:06;13.40;99.90
6538;DHT22;3302;52.508;13.454;2022-10-23T02:14:43;13.30;99.90
6538;DHT22;3302;52.508;13.454;2022-10-23T02:17:15;13.30;99.90
6538;DHT22;3302;52.508;13.454;2022-10-23T02:19:59;13.30;99.90
6538;DHT22;3302;52.508;13.454;2022-10-23T02:22:30;13.30;99.90
6538;DHT22;3302;52.508;13.454;2022-10-23T02:25:07;13.40;99.90
6538;DHT22;3302;52.508;13.454;2022-10-23T02:27:45;13.30;99.90
6538;DHT22;3302;52.508;13.454;2022-10-23T02:30:14;13.30;99.90
6538;DHT22;3302;52.508;13.454;2022-10-23T02:32:44;13.30;99.90
6538;DHT22;3302;52.508;13.454;2022-10-23T02:35:11;13.30;99.90
6538;DHT22;3302;52.508;13.454;2022-10-23T02:37:37;13.30;99.90
6538;DHT22;3302;52.508;13.454;2022-10-23T02:40:03;13.30;99.90
6538;DHT22;3302;52.508;13.454;2022-10-23T02:42:35;13.30;99.90
6538;DHT22;3302;52.508;13.454;2022-10-23T02:45:13;13.30;99.90
6538;DHT22;3302;52.508;13.454;2022-10-23T02:48:05;13.30;99.90
6538;DHT22;3302;52.508;13.454;2022-10-23T02:53:32;13.30;99.90
6538;DHT22;3302;52.508;13.454;2022-10-23T02:56:44;13.20;99.90
6538;DHT22;3302;52.508;13.454;2022-10-23T02:59:05;13.20;99.90
6538;DHT22;3302;52.508;13.454;2022-10-23T03:01:39;13.30;99.90
6538;DHT22;3302;52.508;13.454;2022-10-23T03:04:10;13.20;99.90
6538;DHT22;3302;52.508;13.454;2022-10-23T03:06:38;13.10;99.90
6538;DHT22;3302;52.508;13.454;2022-10-23T03:09:06;13.20;99.90
6538;DHT22;3302;52.508;13.454;2022-10-23T03:11:32;13.30;99.90
6538;DHT22;3302;52.508;13.454;2022-10-23T03:13:58;13.30;99.90
6538;DHT22;3302;52.508;13.454;2022-10-23T03:16:24;13.20;99.90
6538;DHT22;3302;52.508;13.454;2022-10-23T03:18:50;13.20;99.90
6538;DHT22;3302;52.508;13.454;2022-10-23T03:21:16;13.20;99.90
6538;DHT22;3302;52.508;13.454;2022-10-23T03:23:41;13.20;99.90
6538;DHT22;3302;52.508;13.454;2022-10-23T03:26:07;13.20;99.90
6538;DHT22;3302;52.508;13.454;2022-10-23T03:28:33;13.20;99.90
6538;DHT22;3302;52.508;13.454;2022-10-23T03:31:00;13.20;99.90
6538;DHT22;3302;52.508;13.454;2022-10-23T03:33:27;13.20;99.90
6538;DHT22;3302;52.508;13.454;2022-10-23T03:35:53;13.10;99.90
6538;DHT22;3302;52.508;13.454;2022-10-23T03:38:19;13.10;99.90
6538;DHT22;3302;52.508;13.454;2022-10-23T03:40:44;13.00;99.90
6538;DHT22;3302;52.508;13.454;2022-10-23T03:43:10;13.00;99.90
6538;DHT22;3302;52.508;13.454;2022-10-23T03:45:36;13.00;99.90
6538;DHT22;3302;52.508;13.454;2022-10-23T03:48:04;13.00;99.90
6538;DHT22;3302;52.508;13.454;2022-10-23T03:50:30;13.00;99.90
6538;DHT22;3302;52.508;13.454;2022-10-23T03:52:56;13.00;99.90
6538;DHT22;3302;52.508;13.454;2022-10-23T03:55:22;13.00;99.90
6538;DHT22;3302;52.508;13.454;2022-10-23T03:57:47;12.90;99.90
6538;DHT22;3302;52.508;13.454;2022-10-23T04:00:13;13.00;99.90
6538;DHT22;3302;52.508;13.454;2022-10-23T04:02:39;13.00;99.90
6538;DHT22;3302;52.508;13.454;2022-10-23T04:05:05;12.90;99.90
6538;DHT22;3302;52.508;13.454;2022-10-23T04:07:31;12.90;99.90
6538;DHT22;3302;52.508;13.454;2022-10-23T04:09:56;12.90;99.90
6538;DHT22;3302;52.508;13.454;2022-10-23T04:12:22;12.80;99.90
6538;DHT22;3302;52.508;13.454;2022-10-23T04:14:48;12.80;99.90
6538;DHT22;3302;52.508;13.454;2022-10-23T04:17:14;12.80;99.90
6538;DHT22;3302;52.508;13.454;2022-10-23T04:19:39;12.80;99.90
6538;DHT22;3302;52.508;13.454;2022-10-23T04:22:05;12.80;99.90
6538;DHT22;3302;52.508;13.454;2022-10-23T04:24:31;12.80;99.90
6538;DHT22;3302;52.508;13.454;2022-10-23T04:26:57;12.80;99.90
6538;DHT22;3302;52.508;13.454;2022-10-23T04:29:22;12.70;99.90
6538;DHT22;3302;52.508;13.454;2022-10-23T04:31:50;12.70;99.90
6538;DHT22;3302;52.508;13.454;2022-10-23T04:34:17;12.70;99.90
6538;DHT22;3302;52.508;13.454;2022-10-23T04:36:43;12.60;99.90
6538;DHT22;3302;52.508;13.454;2022-10-23T04:39:09;12.60;99.90
6538;DHT22;3302;52.508;13.454;2022-10-23T04:41:35;12.60;99.90
6538;DHT22;3302;52.508;13.454;2022-10-23T04:44:03;12.50;99.90
6538;DHT22;3302;52.508;13.454;2022-10-23T04:46:29;12.50;99.90
6538;DHT22;3302;52.508;13.454;2022-10-23T04:48:54;12.40;99.90
6538;DHT22;3302;52.508;13.454;2022-10-23T04:51:20;12.40;99.90
6538;DHT22;3302;52.508;13.454;2022-10-23T04:53:46;12.30;99.90
6538;DHT22;3302;52.508;13.454;2022-10-23T04:56:13;12.20;99.90
6538;DHT22;3302;52.508;13.454;2022-10-23T04:58:40;12.10;99.90
6538;DHT22;3302;52.508;13.454;2022-10-23T05:01:07;12.10;99.90
6538;DHT22;3302;52.508;13.454;2022-10-23T05:03:35;12.10;99.90
6538;DHT22;3302;52.508;13.454;2022-10-23T05:06:02;12.00;99.90
6538;DHT22;3302;52.508;13.454;2022-10-23T05:08:28;12.00;99.90
6538;DHT22;3302;52.508;13.454;2022-10-23T05:10:53;12.10;99.90
6538;DHT22;3302;52.508;13.454;2022-10-23T05:13:19;12.10;99.90
6538;DHT22;3302;52.508;13.454;2022-10-23T05:15:50;12.00;99.90
6538;DHT22;3302;52.508;13.454;2022-10-23T05:18:29;11.90;99.90
6538;DHT22;3302;52.508;13.454;2022-10-23T05:21:07;12.00;99.90
6538;DHT22;3302;52.508;13.454;2022-10-23T05:23:34;12.00;99.90
6538;DHT22;3302;52.508;13.454;2022-10-23T05:26:00;12.00;99.90
6538;DHT22;3302;52.508;13.454;2022-10-23T05:28:28;12.00;99.90
6538;DHT22;3302;52.508;13.454;2022-10-23T05:30:54;11.90;99.90
6538;DHT22;3302;52.508;13.454;2022-10-23T05:33:20;11.80;99.90
6538;DHT22;3302;52.508;13.454;2022-10-23T05:35:46;11.80;99.90
6538;DHT22;3302;52.508;13.454;2022-10-23T05:38:12;11.80;99.90
6538;DHT22;3302;52.508;13.454;2022-10-23T05:40:38;11.80;99.90
6538;DHT22;3302;52.508;13.454;2022-10-23T05:43:04;11.80;99.90
6538;DHT22;3302;52.508;13.454;2022-10-23T05:45:30;11.70;99.90
6538;DHT22;3302;52.508;13.454;2022-10-23T05:47:55;11.80;99.90
6538;DHT22;3302;52.508;13.454;2022-10-23T05:50:21;11.70;99.90
6538;DHT22;3302;52.508;13.454;2022-10-23T05:52:47;11.80;99.90
6538;DHT22;3302;52.508;13.454;2022-10-23T05:55:14;11.80;99.90
6538;DHT22;3302;52.508;13.454;2022-10-23T05:57:40;11.80;99.90
6538;DHT22;3302;52.508;13.454;2022-10-23T06:00:06;11.80;99.90
6538;DHT22;3302;52.508;13.454;2022-10-23T06:02:32;11.70;99.90
6538;DHT22;3302;52.508;13.454;2022-10-23T06:04:58;11.60;99.90
6538;DHT22;3302;52.508;13.454;2022-10-23T06:07:28;11.70;99.90
6538;DHT22;3302;52.508;13.454;2022-10-23T06:09:54;11.70;99.90
6538;DHT22;3302;52.508;13.454;2022-10-23T06:12:21;11.70;99.90
6538;DHT22;3302;52.508;13.454;2022-10-23T06:14:47;11.70;99.90
6538;DHT22;3302;52.508;13.454;2022-10-23T06:17:13;11.70;99.90
6538;DHT22;3302;52.508;13.454;2022-10-23T06:19:39;11.80;99.90
6538;DHT22;3302;52.508;13.454;2022-10-23T06:22:05;11.70;99.90
6538;DHT22;3302;52.508;13.454;2022-10-23T06:24:31;11.60;99.90
6538;DHT22;3302;52.508;13.454;2022-10-23T06:26:56;11.60;99.90
6538;DHT22;3302;52.508;13.454;2022-10-23T06:29:22;11.60;99.90
6538;DHT22;3302;52.508;13.454;2022-10-23T06:31:48;11.70;99.90
6538;DHT22;3302;52.508;13.454;2022-10-23T06:34:14;11.90;99.90
6538;DHT22;3302;52.508;13.454;2022-10-23T06:36:40;11.90;99.90
6538;DHT22;3302;52.508;13.454;2022-10-23T06:39:05;11.80;99.90
6538;DHT22;3302;52.508;13.454;2022-10-23T06:41:31;11.90;99.90
6538;DHT22;3302;52.508;13.454;2022-10-23T06:43:57;11.90;99.90
6538;DHT22;3302;52.508;13.454;2022-10-23T06:46:23;11.80;99.90
6538;DHT22;3302;52.508;13.454;2022-10-23T06:48:51;11.70;99.90
6538;DHT22;3302;52.508;13.454;2022-10-23T06:51:18;11.60;99.90
6538;DHT22;3302;52.508;13.454;2022-10-23T06:53:45;11.60;99.90
6538;DHT22;3302;52.508;13.454;2022-10-23T06:56:11;11.50;99.90
6538;DHT22;3302;52.508;13.454;2022-10-23T06:58:38;11.50;99.90
6538;DHT22;3302;52.508;13.454;2022-10-23T07:01:06;11.50;99.90
6538;DHT22;3302;52.508;13.454;2022-10-23T07:03:32;11.50;99.90
6538;DHT22;3302;52.508;13.454;2022-10-23T07:06:04;11.60;99.90
6538;DHT22;3302;52.508;13.454;2022-10-23T07:08:30;11.60;99.90
6538;DHT22;3302;52.508;13.454;2022-10-23T07:10:56;11.60;99.90
6538;DHT22;3302;52.508;13.454;2022-10-23T07:13:21;11.60;99.90
6538;DHT22;3302;52.508;13.454;2022-10-23T07:15:49;11.70;99.90
6538;DHT22;3302;52.508;13.454;2022-10-23T07:18:15;11.70;99.90
6538;DHT22;3302;52.508;13.454;2022-10-23T07:20:42;11.80;99.90
6538;DHT22;3302;52.508;13.454;2022-10-23T07:23:10;11.80;99.90
6538;DHT22;3302;52.508;13.454;2022-10-23T07:25:36;11.80;99.90
6538;DHT22;3302;52.508;13.454;2022-10-23T07:28:03;11.90;99.90
6538;DHT22;3302;52.508;13.454;2022-10-23T07:30:29;12.00;99.90
6538;DHT22;3302;52.508;13.454;2022-10-23T07:32:55;12.00;99.90
6538;DHT22;3302;52.508;13.454;2022-10-23T07:35:23;12.00;99.90
6538;DHT22;3302;52.508;13.454;2022-10-23T07:37:48;12.10;99.90
6538;DHT22;3302;52.508;13.454;2022-10-23T07:40:14;12.10;99.90
6538;DHT22;3302;52.508;13.454;2022-10-23T07:42:41;12.10;99.90
6538;DHT22;3302;52.508;13.454;2022-10-23T07:45:07;12.10;99.90
6538;DHT22;3302;52.508;13.454;2022-10-23T07:47:33;12.10;99.90
6538;DHT22;3302;52.508;13.454;2022-10-23T07:49:59;12.20;99.90
6538;DHT22;3302;52.508;13.454;2022-10-23T07:52:25;12.20;99.90
6538;DHT22;3302;52.508;13.454;2022-10-23T07:54:51;12.20;99.90
6538;DHT22;3302;52.508;13.454;2022-10-23T07:57:17;12.20;99.90
6538;DHT22;3302;52.508;13.454;2022-10-23T07:59:43;12.30;99.90
6538;DHT22;3302;52.508;13.454;2022-10-23T08:02:13;12.40;99.90
6538;DHT22;3302;52.508;13.454;2022-10-23T08:04:40;12.40;99.90
6538;DHT22;3302;52.508;13.454;2022-10-23T08:07:05;12.50;99.90
6538;DHT22;3302;52.508;13.454;2022-10-23T08:09:31;12.70;99.90
6538;DHT22;3302;52.508;13.454;2022-10-23T08:11:59;12.60;99.90
6538;DHT22;3302;52.508;13.454;2022-10-23T08:14:25;12.70;99.90
6538;DHT22;3302;52.508;13.454;2022-10-23T08:16:51;12.70;99.90
6538;DHT22;3302;52.508;13.454;2022-10-23T08:19:17;12.90;99.90
6538;DHT22;3302;52.508;13.454;2022-10-23T08:21:43;13.00;99.90
6538;DHT22;3302;52.508;13.454;2022-10-23T08:24:10;13.10;99.90
6538;DHT22;3302;52.508;13.454;2022-10-23T08:26:38;13.20;99.90
6538;DHT22;3302;52.508;13.454;2022-10-23T08:29:04;13.40;99.90
6538;DHT22;3302;52.508;13.454;2022-10-23T08:31:30;13.50;99.90
6538;DHT22;3302;52.508;13.454;2022-10-23T08:33:55;13.50;99.90
6538;DHT22;3302;52.508;13.454;2022-10-23T08:36:23;13.60;99.90
6538;DHT22;3302;52.508;13.454;2022-10-23T08:38:50;13.60;99.90
6538;DHT22;3302;52.508;13.454;2022-10-23T08:43:53;13.70;99.90
6538;DHT22;3302;52.508;13.454;2022-10-23T08:46:24;13.80;99.90
6538;DHT22;3302;52.508;13.454;2022-10-23T08:48:55;13.90;99.90
6538;DHT22;3302;52.508;13.454;2022-10-23T08:51:30;14.00;99.90
6538;DHT22;3302;52.508;13.454;2022-10-23T08:54:07;14.00;99.90
6538;DHT22;3302;52.508;13.454;2022-10-23T08:56:38;14.00;99.90
6538;DHT22;3302;52.508;13.454;2022-10-23T08:59:15;14.10;99.90
6538;DHT22;3302;52.508;13.454;2022-10-23T09:02:20;14.20;99.90
6538;DHT22;3302;52.508;13.454;2022-10-23T09:04:49;14.20;99.90
6538;DHT22;3302;52.508;13.454;2022-10-23T09:07:43;14.30;99.90
6538;DHT22;3302;52.508;13.454;2022-10-23T09:15:43;14.60;99.90
6538;DHT22;3302;52.508;13.454;2022-10-23T09:18:14;14.60;99.90
6538;DHT22;3302;52.508;13.454;2022-10-23T09:20:41;14.70;99.90
6538;DHT22;3302;52.508;13.454;2022-10-23T09:23:17;14.90;99.90
6538;DHT22;3302;52.508;13.454;2022-10-23T09:25:46;15.00;99.90
6538;DHT22;3302;52.508;13.454;2022-10-23T09:28:19;15.10;99.90
6538;DHT22;3302;52.508;13.454;2022-10-23T09:30:46;15.10;99.90
6538;DHT22;3302;52.508;13.454;2022-10-23T09:33:26;15.20;99.90
6538;DHT22;3302;52.508;13.454;2022-10-23T09:40:59;15.50;99.90
6538;DHT22;3302;52.508;13.454;2022-10-23T09:43:26;15.70;99.90
6538;DHT22;3302;52.508;13.454;2022-10-23T09:46:03;15.70;99.90
6538;DHT22;3302;52.508;13.454;2022-10-23T09:48:30;15.70;99.90
6538;DHT22;3302;52.508;13.454;2022-10-23T09:51:11;15.70;99.90
6538;DHT22;3302;52.508;13.454;2022-10-23T09:53:47;15.80;99.90
6538;DHT22;3302;52.508;13.454;2022-10-23T09:59:05;16.10;99.90
6538;DHT22;3302;52.508;13.454;2022-10-23T10:02:01;16.20;99.90
6538;DHT22;3302;52.508;13.454;2022-10-23T10:04:35;16.20;99.90
6538;DHT22;3302;52.508;13.454;2022-10-23T10:07:03;16.20;99.90
6538;DHT22;3302;52.508;13.454;2022-10-23T10:09:29;16.30;99.90
6538;DHT22;3302;52.508;13.454;2022-10-23T10:11:59;16.40;99.90
6538;DHT22;3302;52.508;13.454;2022-10-23T10:17:51;16.60;99.90
6538;DHT22;3302;52.508;13.454;2022-10-23T10:20:44;16.60;99.90
6538;DHT22;3302;52.508;13.454;2022-10-23T10:26:02;16.60;99.90
6538;DHT22;3302;52.508;13.454;2022-10-23T10:31:50;16.80;99.90
6538;DHT22;3302;52.508;13.454;2022-10-23T10:34:28;16.90;99.90
6538;DHT22;3302;52.508;13.454;2022-10-23T10:39:52;17.00;99.90
6538;DHT22;3302;52.508;13.454;2022-10-23T10:42:27;17.10;99.90
6538;DHT22;3302;52.508;13.454;2022-10-23T10:56:09;17.30;99.90
6538;DHT22;3302;52.508;13.454;2022-10-23T11:01:35;17.60;99.90
6538;DHT22;3302;52.508;13.454;2022-10-23T11:07:07;17.40;99.90
6538;DHT22;3302;52.508;13.454;2022-10-23T11:09:33;17.50;99.90
6538;DHT22;3302;52.508;13.454;2022-10-23T11:11:59;17.40;99.90
6538;DHT22;3302;52.508;13.454;2022-10-23T11:14:28;17.40;99.90
6538;DHT22;3302;52.508;13.454;2022-10-23T11:17:07;17.40;99.90
6538;DHT22;3302;52.508;13.454;2022-10-23T11:19:53;17.40;99.90
6538;DHT22;3302;52.508;13.454;2022-10-23T11:25:54;17.50;99.90
6538;DHT22;3302;52.508;13.454;2022-10-23T11:32:10;17.80;99.90
6538;DHT22;3302;52.508;13.454;2022-10-23T11:37:22;18.10;99.90
6538;DHT22;3302;52.508;13.454;2022-10-23T11:42:45;17.90;99.90
6538;DHT22;3302;52.508;13.454;2022-10-23T11:45:35;18.20;99.90
6538;DHT22;3302;52.508;13.454;2022-10-23T11:48:05;18.20;99.90
6538;DHT22;3302;52.508;13.454;2022-10-23T11:53:36;18.20;99.90
6538;DHT22;3302;52.508;13.454;2022-10-23T12:04:15;18.10;99.90
6538;DHT22;3302;52.508;13.454;2022-10-23T12:06:52;18.10;99.90
6538;DHT22;3302;52.508;13.454;2022-10-23T12:14:38;18.40;99.90
6538;DHT22;3302;52.508;13.454;2022-10-23T12:17:37;18.30;99.90
6538;DHT22;3302;52.508;13.454;2022-10-23T12:22:46;18.30;99.90
6538;DHT22;3302;52.508;13.454;2022-10-23T12:25:30;18.30;99.90
6538;DHT22;3302;52.508;13.454;2022-10-23T12:30:42;18.20;99.90
6538;DHT22;3302;52.508;13.454;2022-10-23T12:33:34;18.20;99.90
6538;DHT22;3302;52.508;13.454;2022-10-23T12:38:51;18.20;99.90
6538;DHT22;3302;52.508;13.454;2022-10-23T12:41:25;18.20;99.90
6538;DHT22;3302;52.508;13.454;2022-10-23T12:43:57;18.10;99.90
6538;DHT22;3302;52.508;13.454;2022-10-23T12:46:33;18.10;99.90
6538;DHT22;3302;52.508;13.454;2022-10-23T12:49:01;18.00;99.90
6538;DHT22;3302;52.508;13.454;2022-10-23T12:51:33;18.00;99.90
6538;DHT22;3302;52.508;13.454;2022-10-23T12:54:00;17.90;99.90
6538;DHT22;3302;52.508;13.454;2022-10-23T12:56:32;18.00;99.90
6538;DHT22;3302;52.508;13.454;2022-10-23T12:58:58;18.00;99.90
6538;DHT22;3302;52.508;13.454;2022-10-23T13:01:32;18.00;99.90
6538;DHT22;3302;52.508;13.454;2022-10-23T13:06:39;18.00;99.90
6538;DHT22;3302;52.508;13.454;2022-10-23T13:09:28;18.00;99.90
6538;DHT22;3302;52.508;13.454;2022-10-23T13:11:55;18.00;99.90
6538;DHT22;3302;52.508;13.454;2022-10-23T13:14:30;17.90;99.90
6538;DHT22;3302;52.508;13.454;2022-10-23T13:17:04;17.90;99.90
6538;DHT22;3302;52.508;13.454;2022-10-23T13:19:31;17.90;99.90
6538;DHT22;3302;52.508;13.454;2022-10-23T13:21:58;17.90;99.90
6538;DHT22;3302;52.508;13.454;2022-10-23T13:24:26;17.90;99.90
6538;DHT22;3302;52.508;13.454;2022-10-23T13:26:53;17.90;99.90
6538;DHT22;3302;52.508;13.454;2022-10-23T13:29:25;17.80;99.90
6538;DHT22;3302;52.508;13.454;2022-10-23T13:31:51;17.80;99.90
6538;DHT22;3302;52.508;13.454;2022-10-23T13:34:25;17.80;99.90
6538;DHT22;3302;52.508;13.454;2022-10-23T13:36:58;17.80;99.90
6538;DHT22;3302;52.508;13.454;2022-10-23T13:39:29;17.80;99.90
6538;DHT22;3302;52.508;13.454;2022-10-23T13:41:57;17.80;99.90
6538;DHT22;3302;52.508;13.454;2022-10-23T13:44:24;17.90;99.90
6538;DHT22;3302;52.508;13.454;2022-10-23T13:46:51;17.90;99.90
6538;DHT22;3302;52.508;13.454;2022-10-23T13:49:18;17.80;99.90
6538;DHT22;3302;52.508;13.454;2022-10-23T13:51:47;17.90;99.90
6538;DHT22;3302;52.508;13.454;2022-10-23T13:54:25;17.90;99.90
6538;DHT22;3302;52.508;13.454;2022-10-23T13:56:52;17.80;99.90
6538;DHT22;3302;52.508;13.454;2022-10-23T13:59:19;17.80;99.90
6538;DHT22;3302;52.508;13.454;2022-10-23T14:01:45;17.80;99.90
6538;DHT22;3302;52.508;13.454;2022-10-23T14:04:12;17.80;99.90
6538;DHT22;3302;52.508;13.454;2022-10-23T14:06:39;17.80;99.90
6538;DHT22;3302;52.508;13.454;2022-10-23T14:09:06;17.80;99.90
6538;DHT22;3302;52.508;13.454;2022-10-23T14:11:32;17.80;99.90
6538;DHT22;3302;52.508;13.454;2022-10-23T14:13:58;17.80;99.90
6538;DHT22;3302;52.508;13.454;2022-10-23T14:16:25;17.80;99.90
6538;DHT22;3302;52.508;13.454;2022-10-23T14:18:51;17.70;99.90
6538;DHT22;3302;52.508;13.454;2022-10-23T14:21:19;17.70;99.90
6538;DHT22;3302;52.508;13.454;2022-10-23T14:23:46;17.70;99.90
6538;DHT22;3302;52.508;13.454;2022-10-23T14:26:15;17.70;99.90
6538;DHT22;3302;52.508;13.454;2022-10-23T14:28:41;17.60;99.90
6538;DHT22;3302;52.508;13.454;2022-10-23T14:31:10;17.60;99.90
6538;DHT22;3302;52.508;13.454;2022-10-23T14:33:36;17.60;99.90
6538;DHT22;3302;52.508;13.454;2022-10-23T14:36:02;17.60;99.90
6538;DHT22;3302;52.508;13.454;2022-10-23T14:38:27;17.60;99.90
6538;DHT22;3302;52.508;13.454;2022-10-23T14:40:53;17.60;99.90
6538;DHT22;3302;52.508;13.454;2022-10-23T14:43:20;17.60;99.90
6538;DHT22;3302;52.508;13.454;2022-10-23T14:45:45;17.50;99.90
6538;DHT22;3302;52.508;13.454;2022-10-23T14:48:11;17.50;99.90
6538;DHT22;3302;52.508;13.454;2022-10-23T14:50:42;17.50;99.90
6538;DHT22;3302;52.508;13.454;2022-10-23T14:53:08;17.60;99.90
6538;DHT22;3302;52.508;13.454;2022-10-23T14:55:34;17.50;99.90
6538;DHT22;3302;52.508;13.454;2022-10-23T14:58:00;17.50;99.90
6538;DHT22;3302;52.508;13.454;2022-10-23T15:00:26;17.50;99.90
6538;DHT22;3302;52.508;13.454;2022-10-23T15:02:51;17.40;99.90
6538;DHT22;3302;52.508;13.454;2022-10-23T15:05:17;17.40;99.90
6538;DHT22;3302;52.508;13.454;2022-10-23T15:07:43;17.30;99.90
6538;DHT22;3302;52.508;13.454;2022-10-23T15:10:09;17.30;99.90
6538;DHT22;3302;52.508;13.454;2022-10-23T15:12:35;17.20;99.90
6538;DHT22;3302;52.508;13.454;2022-10-23T15:15:02;17.20;99.90
6538;DHT22;3302;52.508;13.454;2022-10-23T15:17:28;17.20;99.90
6538;DHT22;3302;52.508;13.454;2022-10-23T15:19:54;17.20;99.90
6538;DHT22;3302;52.508;13.454;2022-10-23T15:22:19;17.10;99.90
6538;DHT22;3302;52.508;13.454;2022-10-23T15:24:47;17.10;99.90
6538;DHT22;3302;52.508;13.454;2022-10-23T15:27:12;17.10;99.90
6538;DHT22;3302;52.508;13.454;2022-10-23T15:29:38;17.10;99.90
6538;DHT22;3302;52.508;13.454;2022-10-23T15:32:04;17.00;99.90
6538;DHT22;3302;52.508;13.454;2022-10-23T15:34:32;17.10;99.90
6538;DHT22;3302;52.508;13.454;2022-10-23T15:36:58;17.00;99.90
6538;DHT22;3302;52.508;13.454;2022-10-23T15:39:28;16.90;99.90
6538;DHT22;3302;52.508;13.454;2022-10-23T15:41:58;16.90;99.90
6538;DHT22;3302;52.508;13.454;2022-10-23T15:44:27;16.80;99.90
6538;DHT22;3302;52.508;13.454;2022-10-23T15:46:53;16.80;99.90
6538;DHT22;3302;52.508;13.454;2022-10-23T15:49:22;16.70;99.90
6538;DHT22;3302;52.508;13.454;2022-10-23T15:51:49;16.60;99.90
6538;DHT22;3302;52.508;13.454;2022-10-23T15:54:17;16.60;99.90
6538;DHT22;3302;52.508;13.454;2022-10-23T15:56:49;16.60;99.90
6538;DHT22;3302;52.508;13.454;2022-10-23T15:59:17;16.60;99.90
6538;DHT22;3302;52.508;13.454;2022-10-23T16:01:43;16.50;99.90
6538;DHT22;3302;52.508;13.454;2022-10-23T16:04:09;16.50;99.90
6538;DHT22;3302;52.508;13.454;2022-10-23T16:06:35;16.50;99.90
6538;DHT22;3302;52.508;13.454;2022-10-23T16:09:00;16.40;99.90
6538;DHT22;3302;52.508;13.454;2022-10-23T16:11:29;16.40;99.90
6538;DHT22;3302;52.508;13.454;2022-10-23T16:13:56;16.30;99.90
6538;DHT22;3302;52.508;13.454;2022-10-23T16:16:23;16.30;99.90
6538;DHT22;3302;52.508;13.454;2022-10-23T16:18:48;16.30;99.90
6538;DHT22;3302;52.508;13.454;2022-10-23T16:23:45;16.30;99.90
6538;DHT22;3302;52.508;13.454;2022-10-23T16:26:11;16.30;99.90
6538;DHT22;3302;52.508;13.454;2022-10-23T16:28:37;16.30;99.90
6538;DHT22;3302;52.508;13.454;2022-10-23T16:31:08;16.30;99.90
6538;DHT22;3302;52.508;13.454;2022-10-23T16:33:34;16.20;99.90
6538;DHT22;3302;52.508;13.454;2022-10-23T16:36:08;16.10;99.90
6538;DHT22;3302;52.508;13.454;2022-10-23T16:38:34;16.10;99.90
6538;DHT22;3302;52.508;13.454;2022-10-23T16:40:59;16.10;99.90
6538;DHT22;3302;52.508;13.454;2022-10-23T16:43:25;16.10;99.90
6538;DHT22;3302;52.508;13.454;2022-10-23T16:46:12;16.10;99.90
6538;DHT22;3302;52.508;13.454;2022-10-23T16:48:39;16.00;99.90
6538;DHT22;3302;52.508;13.454;2022-10-23T16:51:07;16.00;99.90
6538;DHT22;3302;52.508;13.454;2022-10-23T16:53:33;16.00;99.90
6538;DHT22;3302;52.508;13.454;2022-10-23T16:55:59;16.00;99.90
6538;DHT22;3302;52.508;13.454;2022-10-23T16:58:25;15.90;99.90
6538;DHT22;3302;52.508;13.454;2022-10-23T17:00:59;15.90;99.90
6538;DHT22;3302;52.508;13.454;2022-10-23T17:03:27;15.90;99.90
6538;DHT22;3302;52.508;13.454;2022-10-23T17:05:52;15.80;99.90
6538;DHT22;3302;52.508;13.454;2022-10-23T17:08:18;15.80;99.90
6538;DHT22;3302;52.508;13.454;2022-10-23T17:10:44;15.80;99.90
6538;DHT22;3302;52.508;13.454;2022-10-23T17:13:10;15.80;99.90
6538;DHT22;3302;52.508;13.454;2022-10-23T17:15:35;15.80;99.90
6538;DHT22;3302;52.508;13.454;2022-10-23T17:18:01;15.70;99.90
6538;DHT22;3302;52.508;13.454;2022-10-23T17:20:27;15.70;99.90
6538;DHT22;3302;52.508;13.454;2022-10-23T17:22:52;15.70;99.90
6538;DHT22;3302;52.508;13.454;2022-10-23T17:25:18;15.70;99.90
6538;DHT22;3302;52.508;13.454;2022-10-23T17:27:44;15.70;99.90
6538;DHT22;3302;52.508;13.454;2022-10-23T17:30:11;15.70;99.90
6538;DHT22;3302;52.508;13.454;2022-10-23T17:32:37;15.70;99.90
6538;DHT22;3302;52.508;13.454;2022-10-23T17:35:04;15.70;99.90
6538;DHT22;3302;52.508;13.454;2022-10-23T17:37:31;15.70;99.90
6538;DHT22;3302;52.508;13.454;2022-10-23T17:39:57;15.70;99.90